createdAt,value
2019-02-20T00:00:50.924Z,10.06
2019-02-20T00:01:55.929Z,10.06
2019-02-20T00:03:01.018Z,10.05
2019-02-20T00:04:06.093Z,10.05
2019-02-20T00:05:11.797Z,10.05
2019-02-20T00:06:16.839Z,10.04
2019-02-20T00:07:21.802Z,10.04
2019-02-20T00:08:26.770Z,10.03
2019-02-20T00:09:31.722Z,10.02
2019-02-20T00:10:36.642Z,9.99
2019-02-20T00:11:41.849Z,9.97
2019-02-20T00:12:46.790Z,9.95
2019-02-20T00:13:51.828Z,9.92
2019-02-20T00:14:56.799Z,9.90
2019-02-20T00:16:01.926Z,9.88
2019-02-20T00:17:11.861Z,9.87
2019-02-20T00:18:17.211Z,9.80
2019-02-20T00:19:22.170Z,9.80
2019-02-20T00:20:27.112Z,9.85
2019-02-20T00:21:32.052Z,9.85
2019-02-20T00:22:40.198Z,9.87
2019-02-20T00:23:43.701Z,9.87
2019-02-20T00:24:48.631Z,9.88
2019-02-20T00:25:53.595Z,9.89
2019-02-20T00:26:59.205Z,9.90
2019-02-20T00:28:04.369Z,9.90
2019-02-20T00:29:09.284Z,9.90
2019-02-20T00:30:14.305Z,9.89
2019-02-20T00:31:19.250Z,9.88
2019-02-20T00:32:24.469Z,9.87
2019-02-20T00:33:29.390Z,9.84
2019-02-20T00:34:34.312Z,9.82
2019-02-20T00:35:39.257Z,9.81
2019-02-20T00:36:44.449Z,9.78
2019-02-20T00:37:49.371Z,9.74
2019-02-20T00:38:54.738Z,9.74
2019-02-20T00:39:59.833Z,9.73
2019-02-20T00:41:05.158Z,9.71
2019-02-20T00:42:10.464Z,9.69
2019-02-20T00:43:15.461Z,9.66
2019-02-20T00:44:51.853Z,9.64
2019-02-20T00:46:16.161Z,9.62
2019-02-20T00:47:28.854Z,9.58
2019-02-20T00:48:52.106Z,9.55
2019-02-20T00:49:57.053Z,9.53
2019-02-20T00:51:13.643Z,9.50
2019-02-20T00:52:31.332Z,9.49
2019-02-20T00:53:41.395Z,9.47
2019-02-20T00:54:46.316Z,9.46
2019-02-20T00:55:51.277Z,9.46
2019-02-20T00:56:56.171Z,9.44
2019-02-20T00:58:01.229Z,9.45
2019-02-20T00:59:06.346Z,9.44
2019-02-20T01:00:12.435Z,9.45
2019-02-20T01:01:17.368Z,9.46
2019-02-20T01:02:22.409Z,9.47
2019-02-20T01:03:27.405Z,9.47
2019-02-20T01:04:36.172Z,9.48
2019-02-20T01:05:41.357Z,9.49
2019-02-20T01:06:46.332Z,9.49
2019-02-20T01:07:51.911Z,9.49
2019-02-20T01:08:56.852Z,9.51
2019-02-20T01:10:01.850Z,9.52
2019-02-20T01:11:06.895Z,9.53
2019-02-20T01:12:12.556Z,9.52
2019-02-20T01:13:17.602Z,9.51
2019-02-20T01:14:22.507Z,9.51
2019-02-20T01:15:27.485Z,9.52
2019-02-20T01:16:33.101Z,9.52
2019-02-20T01:17:38.134Z,9.52
2019-02-20T01:18:43.085Z,9.51
2019-02-20T01:19:48.315Z,9.51
2019-02-20T01:20:53.321Z,9.50
2019-02-20T01:21:58.577Z,9.51
2019-02-20T01:23:03.687Z,9.51
2019-02-20T01:24:08.577Z,9.50
2019-02-20T01:25:13.493Z,9.50
2019-02-20T01:26:18.676Z,9.50
2019-02-20T01:27:23.985Z,9.51
2019-02-20T01:28:29.160Z,9.51
2019-02-20T01:29:34.165Z,9.49
2019-02-20T01:30:39.370Z,9.50
2019-02-20T01:31:44.432Z,9.48
2019-02-20T01:32:49.535Z,9.49
2019-02-20T01:33:54.833Z,9.49
2019-02-20T01:34:59.778Z,9.49
2019-02-20T01:36:04.817Z,9.48
2019-02-20T01:37:09.935Z,9.47
2019-02-20T01:38:15.037Z,9.45
2019-02-20T01:39:19.969Z,9.43
2019-02-20T01:40:25.285Z,9.42
2019-02-20T01:41:30.319Z,9.41
2019-02-20T01:42:35.309Z,9.35
2019-02-20T01:43:40.218Z,9.35
2019-02-20T01:44:45.745Z,9.37
2019-02-20T01:45:50.795Z,9.37
2019-02-20T01:46:55.800Z,9.35
2019-02-20T01:48:00.713Z,9.33
2019-02-20T01:49:05.657Z,9.32
2019-02-20T01:50:10.869Z,9.30
2019-02-20T01:51:15.757Z,9.29
2019-02-20T01:52:21.088Z,9.28
2019-02-20T01:53:26.018Z,9.28
2019-02-20T01:54:30.924Z,9.27
2019-02-20T01:55:35.845Z,9.27
2019-02-20T01:56:40.771Z,9.26
2019-02-20T01:57:46.007Z,9.26
2019-02-20T01:58:51.801Z,9.25
2019-02-20T01:59:57.098Z,9.25
2019-02-20T02:01:02.160Z,9.25
2019-02-20T02:02:07.374Z,9.24
2019-02-20T02:03:12.640Z,9.24
2019-02-20T02:04:17.770Z,9.22
2019-02-20T02:05:22.726Z,9.21
2019-02-20T02:06:27.620Z,9.18
2019-02-20T02:07:32.798Z,9.16
2019-02-20T02:08:37.800Z,9.15
2019-02-20T02:09:43.070Z,9.12
2019-02-20T02:10:48.276Z,9.10
2019-02-20T02:11:53.423Z,9.08
2019-02-20T02:12:58.336Z,9.06
2019-02-20T02:14:03.319Z,9.05
2019-02-20T02:15:08.861Z,9.02
2019-02-20T02:16:13.887Z,9.01
2019-02-20T02:17:18.927Z,9.01
2019-02-20T02:18:23.899Z,9.01
2019-02-20T02:19:28.884Z,9.01
2019-02-20T02:20:33.989Z,9.01
2019-02-20T02:21:42.280Z,9.02
2019-02-20T02:22:47.298Z,9.02
2019-02-20T02:23:52.232Z,9.05
2019-02-20T02:24:57.620Z,9.05
2019-02-20T02:26:10.629Z,9.07
2019-02-20T02:27:09.301Z,9.05
2019-02-20T02:28:14.243Z,9.06
2019-02-20T02:29:19.653Z,9.06
2019-02-20T02:30:24.617Z,9.07
2019-02-20T02:31:29.603Z,9.08
2019-02-20T02:32:34.532Z,9.07
2019-02-20T02:33:40.162Z,9.08
2019-02-20T02:34:45.157Z,9.09
2019-02-20T02:35:55.783Z,9.10
2019-02-20T02:37:00.744Z,9.11
2019-02-20T02:38:06.341Z,9.12
2019-02-20T02:39:11.384Z,9.12
2019-02-20T02:40:16.666Z,9.12
2019-02-20T02:41:21.630Z,9.12
2019-02-20T02:42:26.551Z,9.13
2019-02-20T02:43:31.544Z,9.13
2019-02-20T02:44:36.829Z,9.13
2019-02-20T02:45:42.372Z,9.13
2019-02-20T02:46:47.682Z,9.15
2019-02-20T02:47:52.663Z,9.15
2019-02-20T02:48:57.972Z,9.16
2019-02-20T02:50:02.993Z,9.15
2019-02-20T02:51:07.896Z,9.14
2019-02-20T02:52:12.902Z,9.14
2019-02-20T02:53:18.400Z,9.13
2019-02-20T02:54:23.304Z,9.12
2019-02-20T02:55:28.315Z,9.09
2019-02-20T02:56:33.644Z,9.06
2019-02-20T02:57:38.938Z,9.03
2019-02-20T02:58:44.224Z,9.01
2019-02-20T02:59:49.161Z,8.99
2019-02-20T03:00:54.511Z,8.97
2019-02-20T03:01:59.466Z,8.95
2019-02-20T03:03:04.367Z,8.95
2019-02-20T03:04:09.460Z,8.93
2019-02-20T03:05:14.400Z,8.93
2019-02-20T03:06:19.326Z,8.92
2019-02-20T03:07:24.283Z,8.92
2019-02-20T03:08:29.235Z,8.90
2019-02-20T03:09:34.534Z,8.88
2019-02-20T03:10:39.457Z,8.84
2019-02-20T03:11:44.804Z,8.81
2019-02-20T03:12:49.677Z,8.80
2019-02-20T03:13:54.783Z,8.77
2019-02-20T03:15:00.420Z,8.77
2019-02-20T03:16:05.494Z,8.76
2019-02-20T03:17:10.460Z,8.78
2019-02-20T03:18:15.400Z,8.77
2019-02-20T03:19:20.341Z,8.78
2019-02-20T03:20:25.594Z,8.79
2019-02-20T03:21:30.584Z,8.78
2019-02-20T03:22:36.297Z,8.78
2019-02-20T03:23:41.576Z,8.80
2019-02-20T03:24:46.591Z,8.79
2019-02-20T03:25:51.907Z,8.78
2019-02-20T03:26:56.969Z,8.78
2019-02-20T03:28:01.998Z,8.79
2019-02-20T03:29:07.016Z,8.79
2019-02-20T03:30:12.043Z,8.81
2019-02-20T03:31:16.957Z,8.81
2019-02-20T03:32:21.910Z,8.82
2019-02-20T03:33:27.134Z,8.85
2019-02-20T03:34:32.219Z,8.86
2019-02-20T03:35:37.517Z,8.89
2019-02-20T03:36:42.413Z,8.92
2019-02-20T03:37:47.375Z,8.95
2019-02-20T03:38:52.639Z,8.95
2019-02-20T03:39:57.600Z,8.96
2019-02-20T03:41:02.576Z,8.96
2019-02-20T03:42:07.631Z,8.97
2019-02-20T03:43:12.820Z,8.97
2019-02-20T03:44:17.837Z,8.97
2019-02-20T03:45:22.827Z,8.99
2019-02-20T03:46:27.746Z,8.99
2019-02-20T03:47:32.731Z,9.00
2019-02-20T03:48:37.705Z,9.00
2019-02-20T03:49:42.760Z,8.99
2019-02-20T03:50:47.762Z,8.99
2019-02-20T03:51:52.763Z,9.00
2019-02-20T03:52:57.669Z,9.00
2019-02-20T03:54:02.805Z,9.02
2019-02-20T03:55:07.877Z,9.01
2019-02-20T03:56:13.284Z,9.01
2019-02-20T03:57:18.465Z,9.05
2019-02-20T03:58:23.492Z,9.04
2019-02-20T03:59:28.798Z,9.03
2019-02-20T04:00:34.146Z,9.01
2019-02-20T04:01:39.170Z,9.01
2019-02-20T04:02:44.159Z,9.01
2019-02-20T04:03:49.383Z,9.01
2019-02-20T04:04:54.716Z,9.02
2019-02-20T04:05:59.609Z,9.01
2019-02-20T04:07:04.532Z,9.03
2019-02-20T04:08:09.526Z,9.03
2019-02-20T04:09:14.813Z,9.04
2019-02-20T04:10:19.853Z,9.05
2019-02-20T04:11:24.874Z,9.03
2019-02-20T04:12:29.838Z,9.04
2019-02-20T04:13:35.261Z,9.04
2019-02-20T04:14:40.526Z,9.05
2019-02-20T04:15:45.508Z,9.06
2019-02-20T04:16:50.469Z,9.07
2019-02-20T04:17:55.786Z,9.08
2019-02-20T04:19:00.815Z,9.09
2019-02-20T04:20:06.777Z,9.10
2019-02-20T04:21:12.062Z,9.10
2019-02-20T04:22:16.999Z,9.10
2019-02-20T04:23:21.919Z,9.11
2019-02-20T04:24:26.922Z,9.11
2019-02-20T04:25:31.897Z,9.12
2019-02-20T04:26:38.771Z,9.11
2019-02-20T04:27:43.655Z,9.11
2019-02-20T04:28:48.718Z,9.08
2019-02-20T04:29:53.735Z,9.07
2019-02-20T04:30:58.663Z,9.05
2019-02-20T04:32:03.685Z,9.04
2019-02-20T04:33:08.952Z,9.05
2019-02-20T04:34:13.882Z,9.03
2019-02-20T04:35:18.817Z,9.03
2019-02-20T04:36:24.112Z,9.04
2019-02-20T04:37:29.012Z,9.05
2019-02-20T04:38:33.993Z,9.03
2019-02-20T04:39:38.904Z,9.04
2019-02-20T04:40:43.837Z,9.02
2019-02-20T04:41:48.783Z,9.03
2019-02-20T04:42:53.674Z,9.02
2019-02-20T04:43:58.605Z,9.04
2019-02-20T04:45:05.089Z,9.05
2019-02-20T04:46:10.321Z,9.07
2019-02-20T04:47:15.723Z,9.09
2019-02-20T04:48:20.622Z,9.09
2019-02-20T04:49:25.569Z,9.10
2019-02-20T04:50:30.495Z,9.11
2019-02-20T04:51:35.398Z,9.11
2019-02-20T04:52:40.512Z,9.12
2019-02-20T04:53:45.498Z,9.13
2019-02-20T04:54:50.521Z,9.12
2019-02-20T04:55:55.451Z,9.11
2019-02-20T04:57:00.761Z,9.12
2019-02-20T04:58:20.353Z,9.14
2019-02-20T04:59:25.418Z,9.14
2019-02-20T05:00:30.543Z,9.15
2019-02-20T05:01:35.875Z,9.14
2019-02-20T05:02:40.812Z,9.13
2019-02-20T05:03:46.086Z,9.12
2019-02-20T05:04:51.165Z,9.11
2019-02-20T05:05:56.129Z,9.09
2019-02-20T05:07:01.082Z,9.09
2019-02-20T05:08:06.194Z,9.10
2019-02-20T05:09:11.541Z,9.09
2019-02-20T05:10:16.482Z,9.09
2019-02-20T05:11:21.817Z,9.07
2019-02-20T05:12:27.208Z,9.05
2019-02-20T05:13:32.250Z,9.05
2019-02-20T05:14:37.237Z,9.05
2019-02-20T05:15:42.243Z,9.04
2019-02-20T05:16:47.576Z,9.03
2019-02-20T05:17:52.760Z,9.02
2019-02-20T05:18:57.873Z,9.02
2019-02-20T05:20:02.940Z,9.02
2019-02-20T05:21:07.864Z,9.02
2019-02-20T05:22:12.834Z,9.02
2019-02-20T05:23:18.144Z,9.02
2019-02-20T05:24:25.013Z,9.02
2019-02-20T05:25:29.872Z,9.01
2019-02-20T05:26:34.827Z,9.01
2019-02-20T05:27:39.782Z,9.01
2019-02-20T05:28:45.075Z,9.00
2019-02-20T05:29:50.278Z,9.00
2019-02-20T05:30:55.256Z,9.00
2019-02-20T05:32:00.216Z,8.98
2019-02-20T05:33:05.182Z,8.97
2019-02-20T05:34:10.313Z,8.95
2019-02-20T05:35:15.288Z,8.92
2019-02-20T05:36:20.281Z,8.92
2019-02-20T05:37:25.228Z,8.87
2019-02-20T05:38:30.167Z,8.86
2019-02-20T05:39:35.110Z,8.83
2019-02-20T05:40:40.021Z,8.82
2019-02-20T05:41:44.951Z,8.81
2019-02-20T05:42:50.023Z,8.78
2019-02-20T05:43:55.372Z,8.77
2019-02-20T05:45:00.689Z,8.75
2019-02-20T05:46:05.733Z,8.72
2019-02-20T05:47:10.702Z,8.70
2019-02-20T05:48:15.625Z,8.69
2019-02-20T05:49:21.002Z,8.69
2019-02-20T05:50:26.540Z,8.67
2019-02-20T05:51:31.795Z,8.65
2019-02-20T05:52:36.805Z,8.64
2019-02-20T05:53:41.818Z,8.62
2019-02-20T05:54:46.903Z,8.60
2019-02-20T05:55:51.855Z,8.59
2019-02-20T05:56:56.928Z,8.58
2019-02-20T05:58:01.831Z,8.58
2019-02-20T05:59:06.828Z,8.59
2019-02-20T06:00:12.277Z,8.57
2019-02-20T06:01:17.228Z,8.56
2019-02-20T06:02:22.267Z,8.55
2019-02-20T06:03:27.184Z,8.53
2019-02-20T06:04:32.893Z,8.53
2019-02-20T06:05:38.123Z,8.52
2019-02-20T06:06:43.142Z,8.50
2019-02-20T06:07:48.146Z,8.48
2019-02-20T06:08:53.100Z,8.47
2019-02-20T06:09:58.021Z,8.48
2019-02-20T06:11:13.873Z,8.48
2019-02-20T06:12:09.709Z,8.47
2019-02-20T06:13:14.615Z,8.48
2019-02-20T06:14:19.681Z,8.50
2019-02-20T06:15:24.616Z,8.51
2019-02-20T06:16:29.564Z,8.52
2019-02-20T06:17:34.830Z,8.54
2019-02-20T06:18:39.849Z,8.57
2019-02-20T06:19:44.792Z,8.59
2019-02-20T06:20:49.772Z,8.61
2019-02-20T06:21:54.747Z,8.61
2019-02-20T06:23:00.044Z,8.64
2019-02-20T06:24:05.007Z,8.65
2019-02-20T06:25:10.347Z,8.66
2019-02-20T06:26:15.325Z,8.69
2019-02-20T06:27:20.561Z,8.71
2019-02-20T06:28:25.519Z,8.72
2019-02-20T06:29:30.520Z,8.74
2019-02-20T06:30:35.479Z,8.75
2019-02-20T06:31:40.991Z,8.76
2019-02-20T06:32:45.948Z,8.77
2019-02-20T06:33:50.951Z,8.79
2019-02-20T06:34:55.991Z,8.79
2019-02-20T06:36:00.960Z,8.80
2019-02-20T06:37:05.984Z,8.82
2019-02-20T06:38:11.866Z,8.82
2019-02-20T06:39:17.279Z,8.83
2019-02-20T06:40:22.203Z,8.84
2019-02-20T06:41:27.190Z,8.85
2019-02-20T06:42:32.577Z,8.87
2019-02-20T06:43:37.626Z,8.88
2019-02-20T06:44:42.552Z,8.88
2019-02-20T06:45:48.098Z,8.89
2019-02-20T06:46:53.419Z,8.90
2019-02-20T06:47:58.319Z,8.92
2019-02-20T06:49:03.224Z,8.95
2019-02-20T06:50:08.416Z,8.96
2019-02-20T06:51:13.399Z,8.97
2019-02-20T06:52:18.424Z,8.99
2019-02-20T06:53:23.636Z,9.01
2019-02-20T06:54:28.720Z,9.02
2019-02-20T06:55:34.057Z,9.04
2019-02-20T06:56:39.143Z,9.04
2019-02-20T06:57:44.782Z,9.04
2019-02-20T06:58:49.821Z,9.03
2019-02-20T06:59:54.780Z,9.03
2019-02-20T07:00:59.790Z,9.03
2019-02-20T07:02:04.800Z,9.04
2019-02-20T07:03:09.732Z,9.05
2019-02-20T07:04:15.092Z,9.05
2019-02-20T07:05:34.416Z,9.05
2019-02-20T07:06:54.518Z,9.06
2019-02-20T07:08:26.381Z,9.05
2019-02-20T07:09:58.238Z,9.07
2019-02-20T07:11:44.199Z,9.06
2019-02-20T07:12:57.629Z,9.04
2019-02-20T07:14:41.117Z,9.03
2019-02-20T07:16:32.497Z,9.02
2019-02-20T07:18:15.225Z,8.97
2019-02-20T07:19:33.013Z,8.92
2019-02-20T07:21:14.976Z,8.89
2019-02-20T07:22:51.012Z,8.89
2019-02-20T07:24:33.098Z,8.87
2019-02-20T07:26:13.536Z,8.83
2019-02-20T07:27:50.038Z,8.79
2019-02-20T07:29:23.533Z,8.75
2019-02-20T07:30:28.458Z,8.72
2019-02-20T07:31:33.775Z,8.69
2019-02-20T07:32:38.810Z,8.68
2019-02-20T07:33:43.739Z,8.67
2019-02-20T07:34:48.637Z,8.66
2019-02-20T07:35:53.935Z,8.65
2019-02-20T07:36:58.946Z,8.63
2019-02-20T07:38:04.400Z,8.63
2019-02-20T07:39:09.454Z,8.63
2019-02-20T07:40:14.476Z,8.62
2019-02-20T07:41:19.489Z,8.61
2019-02-20T07:42:24.393Z,8.61
2019-02-20T07:43:29.484Z,8.61
2019-02-20T07:44:34.462Z,8.60
2019-02-20T07:45:39.847Z,8.58
2019-02-20T07:46:45.068Z,8.60
2019-02-20T07:47:50.303Z,8.61
2019-02-20T07:48:55.248Z,8.61
2019-02-20T07:50:00.418Z,8.62
2019-02-20T07:51:05.830Z,8.62
2019-02-20T07:52:11.108Z,8.63
2019-02-20T07:53:16.346Z,8.63
2019-02-20T07:54:21.751Z,8.64
2019-02-20T07:55:26.831Z,8.65
2019-02-20T07:56:32.047Z,8.67
2019-02-20T07:57:37.042Z,8.68
2019-02-20T07:58:42.289Z,8.69
2019-02-20T07:59:47.361Z,8.68
2019-02-20T08:00:52.885Z,8.69
2019-02-20T08:01:57.757Z,8.70
2019-02-20T08:03:02.654Z,8.72
2019-02-20T08:04:07.833Z,8.74
2019-02-20T08:05:12.969Z,8.76
2019-02-20T08:06:18.209Z,8.78
2019-02-20T08:07:23.140Z,8.82
2019-02-20T08:08:28.084Z,8.85
2019-02-20T08:09:33.052Z,8.90
2019-02-20T08:10:38.071Z,8.93
2019-02-20T08:11:43.283Z,8.96
2019-02-20T08:12:48.180Z,8.99
2019-02-20T08:13:53.180Z,9.03
2019-02-20T08:14:58.496Z,9.04
2019-02-20T08:16:03.558Z,9.09
2019-02-20T08:17:08.480Z,9.13
2019-02-20T08:18:13.765Z,9.16
2019-02-20T08:19:19.057Z,9.19
2019-02-20T08:20:24.145Z,9.23
2019-02-20T08:21:29.508Z,9.27
2019-02-20T08:22:34.467Z,9.29
2019-02-20T08:23:39.760Z,9.33
2019-02-20T08:24:44.867Z,9.36
2019-02-20T08:25:49.816Z,9.40
2019-02-20T08:26:55.122Z,9.42
2019-02-20T08:28:00.395Z,9.47
2019-02-20T08:29:05.865Z,9.49
2019-02-20T08:30:13.931Z,9.50
2019-02-20T08:31:18.834Z,9.53
2019-02-20T08:32:23.843Z,9.53
2019-02-20T08:33:28.901Z,9.54
2019-02-20T08:34:33.918Z,9.58
2019-02-20T08:35:38.866Z,9.59
2019-02-20T08:36:44.203Z,9.63
2019-02-20T08:37:49.111Z,9.69
2019-02-20T08:38:54.018Z,9.69
2019-02-20T08:39:59.279Z,9.72
2019-02-20T08:41:04.350Z,9.72
2019-02-20T08:42:09.379Z,9.71
2019-02-20T08:43:14.314Z,9.73
2019-02-20T08:44:19.275Z,9.73
2019-02-20T08:45:24.235Z,9.76
2019-02-20T08:46:29.466Z,9.78
2019-02-20T08:47:34.383Z,9.81
2019-02-20T08:48:39.567Z,9.84
2019-02-20T08:49:44.706Z,9.86
2019-02-20T08:50:49.925Z,9.89
2019-02-20T08:51:54.873Z,9.90
2019-02-20T08:52:59.843Z,9.94
2019-02-20T08:54:04.815Z,9.98
2019-02-20T08:55:10.026Z,10.00
2019-02-20T08:56:14.970Z,10.03
2019-02-20T08:57:20.230Z,10.06
2019-02-20T08:58:25.364Z,10.07
2019-02-20T08:59:30.309Z,10.11
2019-02-20T09:00:35.448Z,10.14
2019-02-20T09:01:40.368Z,10.18
2019-02-20T09:02:45.655Z,10.23
2019-02-20T09:03:50.806Z,10.26
2019-02-20T09:04:55.783Z,10.31
2019-02-20T09:06:00.879Z,10.33
2019-02-20T09:07:05.875Z,10.37
2019-02-20T09:08:10.874Z,10.41
2019-02-20T09:09:16.031Z,10.45
2019-02-20T09:10:20.973Z,10.48
2019-02-20T09:11:26.239Z,10.54
2019-02-20T09:12:31.160Z,10.54
2019-02-20T09:13:36.127Z,10.56
2019-02-20T09:14:41.136Z,10.59
2019-02-20T09:15:46.247Z,10.62
2019-02-20T09:16:51.596Z,10.56
2019-02-20T09:17:56.566Z,10.62
2019-02-20T09:19:01.649Z,10.63
2019-02-20T09:20:07.589Z,10.63
2019-02-20T09:21:12.575Z,10.63
2019-02-20T09:22:17.576Z,10.63
2019-02-20T09:23:22.496Z,10.64
2019-02-20T09:24:27.942Z,10.63
2019-02-20T09:25:41.354Z,10.63
2019-02-20T09:26:39.482Z,10.62
2019-02-20T09:27:44.729Z,10.62
2019-02-20T09:28:49.735Z,10.63
2019-02-20T09:29:54.766Z,10.62
2019-02-20T09:30:59.714Z,10.63
2019-02-20T09:32:05.069Z,10.64
2019-02-20T09:33:10.020Z,10.67
2019-02-20T09:34:15.293Z,10.67
2019-02-20T09:35:20.262Z,10.69
2019-02-20T09:36:25.221Z,10.65
2019-02-20T09:37:30.225Z,10.75
2019-02-20T09:38:35.192Z,10.79
2019-02-20T09:39:40.255Z,10.88
2019-02-20T09:40:45.227Z,10.88
2019-02-20T09:41:50.430Z,10.92
2019-02-20T09:42:55.498Z,10.93
2019-02-20T09:44:00.780Z,10.93
2019-02-20T09:45:06.700Z,10.96
2019-02-20T09:46:11.955Z,11.01
2019-02-20T09:47:17.665Z,11.01
2019-02-20T09:48:22.686Z,11.04
2019-02-20T09:49:27.643Z,11.04
2019-02-20T09:50:32.819Z,11.04
2019-02-20T09:51:38.055Z,11.11
2019-02-20T09:52:51.921Z,11.14
2019-02-20T09:53:50.204Z,11.18
2019-02-20T09:54:55.635Z,11.21
2019-02-20T09:56:00.661Z,11.19
2019-02-20T09:57:05.671Z,11.26
2019-02-20T09:58:10.724Z,11.29
2019-02-20T09:59:16.047Z,11.31
2019-02-20T10:00:21.481Z,11.33
2019-02-20T10:01:26.376Z,11.34
2019-02-20T10:02:31.369Z,11.35
2019-02-20T10:03:36.401Z,11.37
2019-02-20T10:04:41.792Z,11.36
2019-02-20T10:05:46.840Z,11.36
2019-02-20T10:06:51.884Z,11.37
2019-02-20T10:07:57.178Z,11.37
2019-02-20T10:09:02.116Z,11.38
2019-02-20T10:10:07.566Z,11.39
2019-02-20T10:11:12.548Z,11.38
2019-02-20T10:12:17.436Z,11.37
2019-02-20T10:13:22.459Z,11.38
2019-02-20T10:14:28.083Z,11.40
2019-02-20T10:15:32.994Z,11.39
2019-02-20T10:16:37.996Z,11.40
2019-02-20T10:17:43.128Z,11.42
2019-02-20T10:18:48.183Z,11.42
2019-02-20T10:19:53.298Z,11.43
2019-02-20T10:20:58.544Z,11.46
2019-02-20T10:22:03.484Z,11.46
2019-02-20T10:23:08.734Z,11.49
2019-02-20T10:24:14.106Z,11.53
2019-02-20T10:25:19.118Z,11.55
2019-02-20T10:26:24.029Z,11.60
2019-02-20T10:27:29.122Z,11.64
2019-02-20T10:28:34.064Z,11.68
2019-02-20T10:29:38.973Z,11.71
2019-02-20T10:30:43.981Z,11.74
2019-02-20T10:31:49.229Z,11.79
2019-02-20T10:32:54.674Z,11.84
2019-02-20T10:33:59.643Z,11.88
2019-02-20T10:35:04.895Z,11.93
2019-02-20T10:36:09.912Z,11.98
2019-02-20T10:37:15.119Z,12.03
2019-02-20T10:38:20.070Z,12.06
2019-02-20T10:39:25.517Z,12.09
2019-02-20T10:40:30.798Z,12.12
2019-02-20T10:41:35.788Z,12.17
2019-02-20T10:42:41.100Z,12.22
2019-02-20T10:43:46.105Z,12.25
2019-02-20T10:44:51.089Z,12.26
2019-02-20T10:45:56.125Z,12.29
2019-02-20T10:47:01.328Z,12.31
2019-02-20T10:48:06.331Z,12.32
2019-02-20T10:49:11.306Z,12.32
2019-02-20T10:50:16.452Z,12.31
2019-02-20T10:51:21.428Z,12.31
2019-02-20T10:52:26.376Z,12.33
2019-02-20T10:53:31.431Z,12.33
2019-02-20T10:54:36.419Z,12.34
2019-02-20T10:55:42.073Z,12.36
2019-02-20T10:56:47.217Z,12.35
2019-02-20T10:57:52.101Z,12.35
2019-02-20T10:58:57.082Z,12.34
2019-02-20T11:00:02.320Z,12.34
2019-02-20T11:01:07.661Z,12.37
2019-02-20T11:02:13.088Z,12.39
2019-02-20T11:03:18.182Z,12.40
2019-02-20T11:04:23.189Z,12.42
2019-02-20T11:05:28.436Z,12.46
2019-02-20T11:06:33.478Z,12.47
2019-02-20T11:07:39.137Z,12.48
2019-02-20T11:08:45.450Z,12.49
2019-02-20T11:09:50.417Z,12.49
2019-02-20T11:10:55.889Z,12.49
2019-02-20T11:12:00.928Z,12.49
2019-02-20T11:13:06.300Z,12.48
2019-02-20T11:14:11.631Z,12.48
2019-02-20T11:15:16.616Z,12.50
2019-02-20T11:16:21.590Z,12.51
2019-02-20T11:17:26.538Z,12.54
2019-02-20T11:18:31.545Z,12.57
2019-02-20T11:19:36.488Z,12.61
2019-02-20T11:20:48.273Z,12.65
2019-02-20T11:21:48.370Z,12.69
2019-02-20T11:22:53.577Z,12.72
2019-02-20T11:23:58.758Z,12.78
2019-02-20T11:25:04.140Z,12.83
2019-02-20T11:26:17.554Z,12.88
2019-02-20T11:27:16.213Z,12.92
2019-02-20T11:28:26.797Z,12.98
2019-02-20T11:29:28.283Z,13.01
2019-02-20T11:30:33.308Z,13.03
2019-02-20T11:31:38.273Z,13.05
2019-02-20T11:32:43.371Z,13.08
2019-02-20T11:33:48.944Z,13.11
2019-02-20T11:34:53.882Z,13.13
2019-02-20T11:35:59.003Z,13.15
2019-02-20T11:37:04.303Z,13.17
2019-02-20T11:38:09.293Z,13.22
2019-02-20T11:39:14.564Z,13.24
2019-02-20T11:40:19.639Z,13.25
2019-02-20T11:41:24.631Z,13.25
2019-02-20T11:42:29.529Z,13.24
2019-02-20T11:43:34.583Z,13.23
2019-02-20T11:44:39.541Z,13.22
2019-02-20T11:45:48.096Z,13.24
2019-02-20T11:46:53.074Z,13.25
2019-02-20T11:47:58.430Z,13.25
2019-02-20T11:49:03.416Z,13.27
2019-02-20T11:50:09.009Z,13.28
2019-02-20T11:51:14.279Z,13.30
2019-02-20T11:52:19.243Z,13.30
2019-02-20T11:53:24.123Z,13.32
2019-02-20T11:54:29.028Z,13.34
2019-02-20T11:55:34.031Z,13.36
2019-02-20T11:56:39.099Z,13.38
2019-02-20T11:57:44.048Z,13.42
2019-02-20T11:58:49.317Z,13.47
2019-02-20T11:59:54.278Z,13.51
2019-02-20T12:00:59.330Z,13.55
2019-02-20T12:02:04.385Z,13.58
2019-02-20T12:03:09.375Z,13.63
2019-02-20T12:04:14.590Z,13.66
2019-02-20T12:05:19.491Z,13.70
2019-02-20T12:06:24.531Z,13.73
2019-02-20T12:07:30.281Z,13.76
2019-02-20T12:08:35.614Z,13.77
2019-02-20T12:09:40.617Z,13.80
2019-02-20T12:10:45.662Z,13.79
2019-02-20T12:11:50.938Z,13.78
2019-02-20T12:12:55.968Z,13.78
2019-02-20T12:14:01.074Z,13.78
2019-02-20T12:15:06.412Z,13.77
2019-02-20T12:16:11.433Z,13.76
2019-02-20T12:17:16.792Z,13.76
2019-02-20T12:18:21.811Z,13.76
2019-02-20T12:19:27.185Z,13.77
2019-02-20T12:20:32.112Z,13.78
2019-02-20T12:21:37.087Z,13.77
2019-02-20T12:22:42.058Z,13.77
2019-02-20T12:23:47.277Z,13.76
2019-02-20T12:24:52.287Z,13.73
2019-02-20T12:25:57.236Z,13.67
2019-02-20T12:27:02.870Z,13.63
2019-02-20T12:28:08.211Z,13.61
2019-02-20T12:29:13.156Z,13.56
2019-02-20T12:30:18.277Z,13.54
2019-02-20T12:31:23.265Z,13.50
2019-02-20T12:32:28.609Z,13.49
2019-02-20T12:33:33.935Z,13.50
2019-02-20T12:34:38.983Z,13.50
2019-02-20T12:35:43.891Z,13.51
2019-02-20T12:36:48.841Z,13.53
2019-02-20T12:37:53.806Z,13.53
2019-02-20T12:38:58.753Z,13.54
2019-02-20T12:40:05.106Z,13.58
2019-02-20T12:41:10.986Z,13.57
2019-02-20T12:42:16.194Z,13.58
2019-02-20T12:43:21.209Z,13.58
2019-02-20T12:44:26.171Z,13.61
2019-02-20T12:45:31.516Z,13.62
2019-02-20T12:46:36.586Z,13.64
2019-02-20T12:47:41.889Z,13.65
2019-02-20T12:48:46.814Z,13.66
2019-02-20T12:49:51.752Z,13.66
2019-02-20T12:50:56.740Z,13.66
2019-02-20T12:52:02.093Z,13.66
2019-02-20T12:53:07.253Z,13.69
2019-02-20T12:54:12.206Z,13.71
2019-02-20T12:55:17.417Z,13.72
2019-02-20T12:56:22.422Z,13.73
2019-02-20T12:57:27.817Z,13.72
2019-02-20T12:58:33.131Z,13.71
2019-02-20T12:59:38.222Z,13.70
2019-02-20T13:00:43.787Z,13.69
2019-02-20T13:01:48.817Z,13.68
2019-02-20T13:02:53.831Z,13.69
2019-02-20T13:03:59.170Z,13.69
2019-02-20T13:05:04.494Z,13.70
2019-02-20T13:06:09.703Z,13.73
2019-02-20T13:07:14.659Z,13.75
2019-02-20T13:08:19.673Z,13.79
2019-02-20T13:09:24.794Z,13.81
2019-02-20T13:10:29.905Z,13.81
2019-02-20T13:11:34.896Z,13.81
2019-02-20T13:12:39.976Z,13.81
2019-02-20T13:13:45.388Z,13.81
2019-02-20T13:14:50.596Z,13.83
2019-02-20T13:15:56.088Z,13.84
2019-02-20T13:17:01.041Z,13.87
2019-02-20T13:18:06.172Z,13.87
2019-02-20T13:19:11.712Z,13.86
2019-02-20T13:20:16.782Z,13.86
2019-02-20T13:21:21.763Z,13.85
2019-02-20T13:22:27.372Z,13.83
2019-02-20T13:23:32.384Z,13.83
2019-02-20T13:24:37.327Z,13.84
2019-02-20T13:25:42.953Z,13.85
2019-02-20T13:26:52.757Z,13.86
2019-02-20T13:27:54.618Z,13.86
2019-02-20T13:28:59.522Z,13.88
2019-02-20T13:30:05.124Z,13.90
2019-02-20T13:31:10.384Z,13.93
2019-02-20T13:32:16.093Z,13.95
2019-02-20T13:33:21.405Z,13.97
2019-02-20T13:34:26.645Z,13.97
2019-02-20T13:35:31.805Z,13.97
2019-02-20T13:36:36.814Z,13.98
2019-02-20T13:37:41.764Z,14.00
2019-02-20T13:38:46.710Z,14.00
2019-02-20T13:39:52.177Z,14.00
2019-02-20T13:40:57.794Z,13.99
2019-02-20T13:42:03.084Z,14.00
2019-02-20T13:43:08.178Z,14.00
2019-02-20T13:44:13.225Z,14.01
2019-02-20T13:45:18.584Z,14.04
2019-02-20T13:46:23.844Z,14.06
2019-02-20T13:47:28.751Z,14.09
2019-02-20T13:48:34.970Z,14.10
2019-02-20T13:49:40.457Z,14.12
2019-02-20T13:50:45.396Z,14.15
2019-02-20T13:51:50.415Z,14.16
2019-02-20T13:52:55.613Z,14.18
2019-02-20T13:54:00.976Z,14.23
2019-02-20T13:55:06.993Z,14.25
2019-02-20T13:56:12.088Z,14.27
2019-02-20T13:57:17.414Z,14.28
2019-02-20T13:58:22.838Z,14.27
2019-02-20T13:59:27.865Z,14.28
2019-02-20T14:00:33.109Z,14.25
2019-02-20T14:01:38.793Z,14.23
2019-02-20T14:02:43.851Z,14.19
2019-02-20T14:03:48.890Z,14.17
2019-02-20T14:04:53.802Z,14.12
2019-02-20T14:05:59.130Z,14.08
2019-02-20T14:07:04.113Z,14.06
2019-02-20T14:08:09.224Z,14.07
2019-02-20T14:09:15.199Z,14.09
2019-02-20T14:10:20.381Z,14.09
2019-02-20T14:11:25.499Z,14.07
2019-02-20T14:12:30.384Z,14.04
2019-02-20T14:13:35.674Z,14.04
2019-02-20T14:14:40.791Z,14.03
2019-02-20T14:15:45.895Z,14.03
2019-02-20T14:16:50.866Z,14.01
2019-02-20T14:17:55.875Z,13.99
2019-02-20T14:19:01.365Z,13.98
2019-02-20T14:20:07.710Z,13.98
2019-02-20T14:21:12.834Z,13.96
2019-02-20T14:22:17.875Z,13.95
2019-02-20T14:23:23.070Z,13.92
2019-02-20T14:24:27.990Z,13.90
2019-02-20T14:25:33.297Z,13.88